createdAt,value
2022-08-31T00:00:30.450Z,4.32
2022-08-31T00:03:15.567Z,4.82
2022-08-31T00:05:43.431Z,5.57
2022-08-31T00:08:11.233Z,3.65
2022-08-31T00:10:43.246Z,4.78
2022-08-31T00:13:14.279Z,5.70
2022-08-31T00:15:43.620Z,5.15
2022-08-31T00:18:11.822Z,6.22
2022-08-31T00:20:40.894Z,3.58
2022-08-31T00:23:12.446Z,4.75
2022-08-31T00:25:45.847Z,2.28
2022-08-31T00:28:16.545Z,3.90
2022-08-31T00:30:44.857Z,4.82
2022-08-31T00:33:14.205Z,5.18
2022-08-31T00:35:44.187Z,3.80
2022-08-31T00:38:13.533Z,2.85
2022-08-31T00:40:47.609Z,5.95
2022-08-31T00:43:39.802Z,4.05
2022-08-31T00:46:10.908Z,3.30
2022-08-31T00:48:45.515Z,7.00
2022-08-31T00:53:45.057Z,4.80
2022-08-31T00:56:14.763Z,4.70
2022-08-31T00:58:43.085Z,5.22
2022-08-31T01:01:13.519Z,6.22
2022-08-31T01:03:43.165Z,4.47
2022-08-31T01:06:10.996Z,4.43
2022-08-31T01:08:38.885Z,3.60
2022-08-31T01:11:08.131Z,3.10
2022-08-31T01:13:37.726Z,2.85
2022-08-31T01:16:19.252Z,3.80
2022-08-31T01:18:49.145Z,3.92
2022-08-31T01:21:27.930Z,6.63
2022-08-31T01:24:01.777Z,4.28
2022-08-31T01:26:33.120Z,7.00
2022-08-31T01:29:06.427Z,5.13
2022-08-31T01:31:38.050Z,2.75
2022-08-31T01:34:06.562Z,5.32
2022-08-31T01:36:38.049Z,6.75
2022-08-31T01:39:09.989Z,2.38
2022-08-31T01:41:41.288Z,8.23
2022-08-31T01:44:09.521Z,3.08
2022-08-31T01:46:37.963Z,6.35
2022-08-31T01:49:06.006Z,3.63
2022-08-31T01:51:34.602Z,3.30
2022-08-31T01:54:04.770Z,3.95
2022-08-31T01:56:37.783Z,4.57
2022-08-31T01:59:08.779Z,4.72
2022-08-31T02:01:41.525Z,5.68
2022-08-31T02:04:11.506Z,7.28
2022-08-31T02:06:43.021Z,2.40
2022-08-31T02:09:13.536Z,3.78
2022-08-31T02:11:44.020Z,4.75
2022-08-31T02:14:12.396Z,4.38
2022-08-31T02:16:41.350Z,4.43
2022-08-31T02:19:09.776Z,7.05
2022-08-31T02:21:38.697Z,2.63
2022-08-31T02:24:08.051Z,7.82
2022-08-31T02:26:35.985Z,3.33
2022-08-31T02:29:07.889Z,3.58
2022-08-31T02:31:36.988Z,4.22
2022-08-31T02:34:05.353Z,5.78
2022-08-31T02:36:35.844Z,5.00
2022-08-31T02:39:05.923Z,8.93
2022-08-31T02:41:33.951Z,8.65
2022-08-31T02:44:01.725Z,6.28
2022-08-31T02:46:30.969Z,7.03
2022-08-31T02:48:58.937Z,6.90
2022-08-31T02:51:26.738Z,4.05
2022-08-31T02:53:54.493Z,6.32
2022-08-31T02:56:23.694Z,5.22
2022-08-31T02:58:54.816Z,5.80
2022-08-31T03:01:24.035Z,5.57
2022-08-31T03:03:54.862Z,7.25
2022-08-31T03:06:23.668Z,5.10
2022-08-31T03:08:51.892Z,5.85
2022-08-31T03:11:20.584Z,4.03
2022-08-31T03:13:48.545Z,6.55
2022-08-31T03:16:17.369Z,6.50
2022-08-31T03:18:46.052Z,7.32
2022-08-31T03:21:15.548Z,5.35
2022-08-31T03:23:43.704Z,5.40
2022-08-31T03:26:11.721Z,4.03
2022-08-31T03:28:39.708Z,3.80
2022-08-31T03:31:09.605Z,3.78
2022-08-31T03:33:38.585Z,7.18
2022-08-31T03:36:06.908Z,9.55
2022-08-31T03:38:36.234Z,5.22
2022-08-31T03:41:04.387Z,4.78
2022-08-31T03:43:32.168Z,5.60
2022-08-31T03:46:00.014Z,7.50
2022-08-31T03:48:28.059Z,8.30
2022-08-31T03:50:55.827Z,4.35
2022-08-31T03:53:23.678Z,6.10
2022-08-31T03:55:53.867Z,6.50
2022-08-31T03:58:21.683Z,7.22
2022-08-31T04:00:49.493Z,7.22
2022-08-31T04:03:17.405Z,8.05
2022-08-31T04:05:45.948Z,6.45
2022-08-31T04:08:14.540Z,7.47
2022-08-31T04:10:44.485Z,3.97
2022-08-31T04:13:14.110Z,4.95
2022-08-31T04:15:42.049Z,4.30
2022-08-31T04:18:10.058Z,5.13
2022-08-31T04:20:40.772Z,6.70
2022-08-31T04:23:09.666Z,6.22
2022-08-31T04:25:39.750Z,6.10
2022-08-31T04:28:09.057Z,5.22
2022-08-31T04:30:40.872Z,7.75
2022-08-31T04:33:09.199Z,3.10
2022-08-31T04:35:39.956Z,5.68
2022-08-31T04:38:08.627Z,5.80
2022-08-31T04:40:39.004Z,3.35
2022-08-31T04:43:08.422Z,5.43
2022-08-31T04:45:40.908Z,3.85
2022-08-31T04:48:11.369Z,3.83
2022-08-31T04:50:42.514Z,7.85
2022-08-31T04:53:11.433Z,10.27
2022-08-31T04:55:41.805Z,2.70
2022-08-31T04:58:10.043Z,7.15
2022-08-31T05:00:38.195Z,4.97
2022-08-31T05:03:05.927Z,6.13
2022-08-31T05:05:38.952Z,5.32
2022-08-31T05:08:07.631Z,7.15
2022-08-31T05:10:36.058Z,5.38
2022-08-31T05:13:03.808Z,7.10
2022-08-31T05:15:31.618Z,4.00
2022-08-31T05:17:59.894Z,7.13
2022-08-31T05:20:27.686Z,7.05
2022-08-31T05:22:56.832Z,4.72
2022-08-31T05:25:24.665Z,3.33
2022-08-31T05:27:53.386Z,4.72
2022-08-31T05:30:22.714Z,4.40
2022-08-31T05:32:50.907Z,10.65
2022-08-31T05:35:18.874Z,4.65
2022-08-31T05:37:48.178Z,3.55
2022-08-31T05:40:17.571Z,3.25
2022-08-31T05:42:45.357Z,4.53
2022-08-31T05:45:13.426Z,4.68
2022-08-31T05:47:41.395Z,8.80
2022-08-31T05:50:11.058Z,4.70
2022-08-31T05:52:39.197Z,6.00
2022-08-31T05:55:07.508Z,5.88
2022-08-31T05:57:38.111Z,4.35
2022-08-31T06:00:07.852Z,7.85
2022-08-31T06:02:37.898Z,5.40
2022-08-31T06:05:06.720Z,4.68
2022-08-31T06:07:34.555Z,4.43
2022-08-31T06:10:02.872Z,6.93
2022-08-31T06:12:33.688Z,8.88
2022-08-31T06:15:04.956Z,9.60
2022-08-31T06:17:32.798Z,7.65
2022-08-31T06:20:00.578Z,7.13
2022-08-31T06:22:29.180Z,8.52
2022-08-31T06:24:56.973Z,7.35
2022-08-31T06:27:26.468Z,8.82
2022-08-31T06:29:55.355Z,9.32
2022-08-31T06:32:26.083Z,5.47
2022-08-31T06:34:53.839Z,7.47
2022-08-31T06:37:21.654Z,6.85
2022-08-31T06:39:49.442Z,6.00
2022-08-31T06:42:17.542Z,8.20
2022-08-31T06:44:45.502Z,7.75
2022-08-31T06:47:13.301Z,8.13
2022-08-31T06:49:42.467Z,10.70
2022-08-31T06:52:10.285Z,7.15
2022-08-31T06:54:38.300Z,9.07
2022-08-31T06:57:06.570Z,8.68
2022-08-31T06:59:34.682Z,8.57
2022-08-31T07:02:03.377Z,8.60
2022-08-31T07:04:35.134Z,9.70
2022-08-31T07:07:07.517Z,8.10
2022-08-31T07:09:36.104Z,11.50
2022-08-31T07:12:06.477Z,10.27
2022-08-31T07:14:35.637Z,9.23
2022-08-31T07:17:03.852Z,14.70
2022-08-31T07:19:32.383Z,7.55
2022-08-31T07:22:02.568Z,13.90
2022-08-31T07:24:35.052Z,6.38
2022-08-31T07:27:09.806Z,10.43
2022-08-31T07:29:41.064Z,8.38
2022-08-31T07:32:09.839Z,6.53
2022-08-31T07:34:38.738Z,10.25
2022-08-31T07:37:25.894Z,11.52
2022-08-31T07:40:13.648Z,9.32
2022-08-31T07:42:46.620Z,10.65
2022-08-31T07:45:23.070Z,10.38
2022-08-31T07:47:52.975Z,9.60
2022-08-31T07:50:22.690Z,8.07
2022-08-31T07:52:54.299Z,7.22
2022-08-31T07:55:29.032Z,3.80
2022-08-31T07:57:58.060Z,3.63
2022-08-31T08:00:30.264Z,1.60
2022-08-31T08:03:07.195Z,3.40
2022-08-31T08:05:38.610Z,3.15
2022-08-31T08:08:13.545Z,5.40
2022-08-31T08:10:51.879Z,4.40
2022-08-31T08:13:23.020Z,2.47
2022-08-31T08:15:52.267Z,4.10
2022-08-31T08:18:20.698Z,5.18
2022-08-31T08:20:49.441Z,1.67
2022-08-31T08:23:26.688Z,4.53
2022-08-31T08:26:00.942Z,1.75
2022-08-31T08:28:45.985Z,4.47
2022-08-31T08:31:16.719Z,2.67
2022-08-31T08:33:46.450Z,2.78
2022-08-31T08:36:19.074Z,2.45
2022-08-31T08:38:50.425Z,1.40
2022-08-31T08:41:23.533Z,1.40
2022-08-31T08:43:57.552Z,3.33
2022-08-31T08:46:35.525Z,2.47
2022-08-31T08:49:18.005Z,4.30
2022-08-31T08:51:49.692Z,4.10
2022-08-31T08:54:29.850Z,3.33
2022-08-31T08:57:01.666Z,0.55
2022-08-31T08:59:30.093Z,1.30
2022-08-31T09:02:04.833Z,2.50
2022-08-31T09:05:05.282Z,0.77
2022-08-31T09:08:05.004Z,1.92
2022-08-31T09:10:42.938Z,1.35
2022-08-31T09:13:25.571Z,2.72
2022-08-31T09:16:15.140Z,2.55
2022-08-31T09:18:52.171Z,2.38
2022-08-31T09:21:25.990Z,2.88
2022-08-31T09:24:01.859Z,2.42
2022-08-31T09:26:35.558Z,0.98
2022-08-31T09:29:04.975Z,1.45
2022-08-31T09:31:39.761Z,1.50
2022-08-31T09:34:14.168Z,1.70
2022-08-31T09:36:42.303Z,3.75
2022-08-31T09:39:24.772Z,2.30
2022-08-31T09:42:03.292Z,4.78
2022-08-31T09:44:41.089Z,2.55
2022-08-31T09:47:42.076Z,2.92
2022-08-31T09:50:11.888Z,2.25
2022-08-31T09:52:59.091Z,2.80
2022-08-31T09:55:28.314Z,4.45
2022-08-31T09:58:02.954Z,5.18
2022-08-31T10:00:41.034Z,3.63
2022-08-31T10:03:20.683Z,3.42
2022-08-31T10:05:54.450Z,2.92
2022-08-31T10:08:39.892Z,1.73
2022-08-31T10:11:15.600Z,3.45
2022-08-31T10:13:54.797Z,2.70
2022-08-31T10:16:31.772Z,4.07
2022-08-31T10:19:07.244Z,5.70
2022-08-31T10:21:52.058Z,2.85
2022-08-31T10:27:14.836Z,8.85
2022-08-31T10:29:56.078Z,4.60
2022-08-31T10:32:38.454Z,4.28
2022-08-31T10:35:14.862Z,5.82
2022-08-31T10:37:57.819Z,3.88
2022-08-31T10:40:32.462Z,4.72
2022-08-31T10:43:17.545Z,4.65
2022-08-31T10:45:49.959Z,3.13
2022-08-31T10:48:24.573Z,3.33
2022-08-31T10:53:55.201Z,4.80
2022-08-31T10:56:41.244Z,3.75
2022-08-31T10:59:25.380Z,4.10
2022-08-31T11:02:08.775Z,4.18
2022-08-31T11:05:01.783Z,2.67
2022-08-31T11:07:47.846Z,5.85
2022-08-31T11:10:32.319Z,2.20
2022-08-31T11:13:07.167Z,4.53
2022-08-31T11:16:09.509Z,5.13
2022-08-31T11:19:31.861Z,2.53
2022-08-31T11:22:35.263Z,3.70
2022-08-31T11:25:34.465Z,2.65
2022-08-31T11:28:10.840Z,3.28
2022-08-31T11:30:50.563Z,3.30
2022-08-31T11:33:28.024Z,2.45
2022-08-31T11:36:06.997Z,2.85
2022-08-31T11:39:36.887Z,6.93
2022-08-31T11:42:12.252Z,2.05
2022-08-31T11:45:05.872Z,7.70
2022-08-31T11:47:38.054Z,1.90
2022-08-31T11:50:50.549Z,5.05
2022-08-31T11:53:25.181Z,2.40
2022-08-31T11:56:00.379Z,1.90
2022-08-31T11:58:34.466Z,3.55
2022-08-31T12:01:25.309Z,2.63
2022-08-31T12:03:56.356Z,3.28
2022-08-31T12:07:04.023Z,2.80
2022-08-31T12:10:18.472Z,3.58
2022-08-31T12:13:12.345Z,3.15
2022-08-31T12:16:04.094Z,1.52
2022-08-31T12:18:52.877Z,2.47
2022-08-31T12:21:51.960Z,6.20
2022-08-31T12:24:36.917Z,2.33
2022-08-31T12:27:31.964Z,3.40
2022-08-31T12:30:24.183Z,3.27
2022-08-31T12:33:02.746Z,2.13
2022-08-31T12:35:33.660Z,2.55
2022-08-31T12:38:05.960Z,4.70
2022-08-31T12:40:36.687Z,2.53
2022-08-31T12:43:14.655Z,1.75
2022-08-31T12:46:16.026Z,2.20
2022-08-31T12:49:11.749Z,2.97
2022-08-31T12:51:46.456Z,4.05
2022-08-31T12:54:44.318Z,3.38
2022-08-31T12:57:32.754Z,2.00
2022-08-31T13:00:13.308Z,1.83
2022-08-31T13:02:47.143Z,2.88
2022-08-31T13:05:20.078Z,2.65
2022-08-31T13:07:48.297Z,2.80
2022-08-31T13:10:27.761Z,2.25
2022-08-31T13:13:00.133Z,4.65
2022-08-31T13:15:38.581Z,3.17
2022-08-31T13:18:15.820Z,4.35
2022-08-31T13:20:46.561Z,3.75
2022-08-31T13:23:24.465Z,1.23
2022-08-31T13:26:02.304Z,2.60
2022-08-31T13:28:30.932Z,2.95
2022-08-31T13:31:03.580Z,3.03
2022-08-31T13:33:36.789Z,2.55
2022-08-31T13:36:14.035Z,2.97
2022-08-31T13:38:52.005Z,3.83
2022-08-31T13:41:28.340Z,2.72
2022-08-31T13:44:01.131Z,1.73
2022-08-31T13:49:35.154Z,2.70
2022-08-31T13:52:06.762Z,1.50
2022-08-31T13:54:37.298Z,1.33
2022-08-31T13:57:20.494Z,3.97
2022-08-31T13:59:49.371Z,4.55
2022-08-31T14:02:37.230Z,3.42
2022-08-31T14:05:10.327Z,2.13
2022-08-31T14:07:59.047Z,2.70
2022-08-31T14:10:32.052Z,3.70
2022-08-31T14:13:04.051Z,5.95
2022-08-31T14:15:40.828Z,3.78
2022-08-31T14:18:24.910Z,3.05
2022-08-31T14:21:28.816Z,1.42
2022-08-31T14:24:01.090Z,2.67
2022-08-31T14:26:33.468Z,1.92
2022-08-31T14:29:10.393Z,2.13
2022-08-31T14:31:46.771Z,2.70
2022-08-31T14:34:24.334Z,2.85
2022-08-31T14:36:58.978Z,1.95
2022-08-31T14:39:31.756Z,1.95
2022-08-31T14:42:02.868Z,1.42
2022-08-31T14:44:36.738Z,2.88
2022-08-31T14:47:06.070Z,1.83
2022-08-31T14:49:36.350Z,2.55
2022-08-31T14:52:07.118Z,2.72
2022-08-31T14:54:37.320Z,2.22
2022-08-31T14:57:12.484Z,3.50
2022-08-31T14:59:44.574Z,2.67
2022-08-31T15:02:16.218Z,6.55
2022-08-31T15:04:46.040Z,3.80
2022-08-31T15:07:17.151Z,3.60
2022-08-31T15:09:47.789Z,2.47
2022-08-31T15:12:18.453Z,4.05
2022-08-31T15:14:46.976Z,5.57
2022-08-31T15:17:19.884Z,3.03
2022-08-31T15:19:55.038Z,2.83
2022-08-31T15:22:26.149Z,1.83
2022-08-31T15:24:56.208Z,3.00
2022-08-31T15:27:28.737Z,3.63
2022-08-31T15:30:04.367Z,4.68
2022-08-31T15:32:32.316Z,5.97
2022-08-31T15:35:00.184Z,4.47
2022-08-31T15:37:32.659Z,7.22
2022-08-31T15:40:04.378Z,3.63
2022-08-31T15:42:39.685Z,2.63
2022-08-31T15:45:09.408Z,1.95
2022-08-31T15:47:58.737Z,2.45
2022-08-31T15:50:31.863Z,4.20
2022-08-31T15:53:09.584Z,3.28
2022-08-31T15:55:40.123Z,2.67
2022-08-31T15:58:09.160Z,4.85
2022-08-31T16:00:37.546Z,2.45
2022-08-31T16:03:05.960Z,2.70
2022-08-31T16:05:38.661Z,3.03
2022-08-31T16:08:10.914Z,4.57
2022-08-31T16:10:44.005Z,3.08
2022-08-31T16:13:13.106Z,3.63
2022-08-31T16:15:40.941Z,3.20
2022-08-31T16:18:08.792Z,5.50
2022-08-31T16:20:38.984Z,2.10
2022-08-31T16:23:08.050Z,4.40
2022-08-31T16:25:48.126Z,2.60
2022-08-31T16:28:18.112Z,1.90
2022-08-31T16:30:46.131Z,3.47
2022-08-31T16:33:13.909Z,1.65
2022-08-31T16:35:44.323Z,2.50
2022-08-31T16:38:13.977Z,3.17
2022-08-31T16:40:42.569Z,2.28
2022-08-31T16:43:10.837Z,5.43
2022-08-31T16:45:39.905Z,2.83
2022-08-31T16:48:25.650Z,3.15
2022-08-31T16:50:57.938Z,3.22
2022-08-31T16:53:28.417Z,4.88
2022-08-31T16:55:59.225Z,5.97
2022-08-31T16:58:48.119Z,1.83
2022-08-31T17:01:21.690Z,5.68
2022-08-31T17:03:52.406Z,1.88
2022-08-31T17:06:20.640Z,2.22
2022-08-31T17:08:54.435Z,3.85
2022-08-31T17:11:26.657Z,3.33
2022-08-31T17:13:58.037Z,2.03
2022-08-31T17:16:28.476Z,2.72
2022-08-31T17:18:58.576Z,1.33
2022-08-31T17:21:31.505Z,2.15
2022-08-31T17:24:04.262Z,2.97
2022-08-31T17:26:34.910Z,2.60
2022-08-31T17:29:06.774Z,2.22
2022-08-31T17:31:42.083Z,2.63
2022-08-31T17:34:10.974Z,2.13
2022-08-31T17:36:40.786Z,3.67
2022-08-31T17:39:11.770Z,2.97
2022-08-31T17:41:42.439Z,2.95
2022-08-31T17:44:16.395Z,1.77
2022-08-31T17:46:45.784Z,9.93
2022-08-31T17:49:14.944Z,11.65
2022-08-31T17:51:43.171Z,6.13
2022-08-31T17:54:15.703Z,4.72
2022-08-31T17:56:47.539Z,7.10
2022-08-31T17:59:19.690Z,4.47
2022-08-31T18:01:51.481Z,2.10
2022-08-31T18:04:23.609Z,6.00
2022-08-31T18:06:54.939Z,3.88
2022-08-31T18:09:29.145Z,4.72
2022-08-31T18:11:57.811Z,4.20
2022-08-31T18:14:28.282Z,3.53
2022-08-31T18:16:59.294Z,3.38
2022-08-31T18:19:29.037Z,4.15
2022-08-31T18:21:57.433Z,4.15
2022-08-31T18:24:27.253Z,7.55
2022-08-31T18:26:57.910Z,4.85
2022-08-31T18:29:26.633Z,2.00
2022-08-31T18:31:56.632Z,4.40
2022-08-31T18:34:26.598Z,3.53
2022-08-31T18:36:55.430Z,2.13
2022-08-31T18:39:51.527Z,3.17
2022-08-31T18:42:37.357Z,3.28
2022-08-31T18:45:19.677Z,5.60
2022-08-31T18:48:20.934Z,3.63
2022-08-31T18:50:44.185Z,4.03
2022-08-31T18:53:15.063Z,2.90
2022-08-31T18:55:45.390Z,4.18
2022-08-31T18:58:13.782Z,6.30
2022-08-31T19:00:41.777Z,18.75
2022-08-31T19:03:09.962Z,28.02
2022-08-31T19:05:41.630Z,23.15
2022-08-31T19:08:09.394Z,10.20
2022-08-31T19:10:37.247Z,11.07
2022-08-31T19:13:07.663Z,8.45
2022-08-31T19:15:40.414Z,4.43
2022-08-31T19:18:08.953Z,5.93
2022-08-31T19:20:36.827Z,3.42
2022-08-31T19:23:04.681Z,5.25
2022-08-31T19:25:32.775Z,5.65
2022-08-31T19:28:07.617Z,2.92
2022-08-31T19:30:37.475Z,4.28
2022-08-31T19:33:07.282Z,4.28
2022-08-31T19:35:36.121Z,3.35
2022-08-31T19:38:04.343Z,6.20
2022-08-31T19:40:38.696Z,8.93
2022-08-31T19:45:56.561Z,7.30
2022-08-31T19:48:44.098Z,6.93
2022-08-31T19:51:14.310Z,6.90
2022-08-31T19:53:44.819Z,4.93
2022-08-31T19:56:17.391Z,8.73
2022-08-31T19:58:48.225Z,5.47
2022-08-31T20:01:20.937Z,7.00
2022-08-31T20:03:49.045Z,7.85
2022-08-31T20:06:20.377Z,5.93
2022-08-31T20:08:50.810Z,7.20
2022-08-31T20:11:22.957Z,8.15
2022-08-31T20:13:51.024Z,9.55
2022-08-31T20:16:22.016Z,4.07
2022-08-31T20:18:55.558Z,6.07
2022-08-31T20:21:27.102Z,5.80
2022-08-31T20:23:58.535Z,6.05
2022-08-31T20:26:33.264Z,5.97
2022-08-31T20:29:08.870Z,4.97
2022-08-31T20:31:45.052Z,6.93
2022-08-31T20:34:18.448Z,5.57
2022-08-31T20:36:49.936Z,7.20
2022-08-31T20:39:20.354Z,10.63
2022-08-31T20:41:51.601Z,6.70
2022-08-31T20:44:23.118Z,10.20
2022-08-31T20:47:13.397Z,8.60
2022-08-31T20:49:44.082Z,8.35
2022-08-31T20:52:16.300Z,5.88
2022-08-31T20:54:45.190Z,6.95
2022-08-31T20:57:14.886Z,8.00
2022-08-31T20:59:42.650Z,6.32
2022-08-31T21:02:12.634Z,7.15
2022-08-31T21:04:44.560Z,6.85
2022-08-31T21:07:15.346Z,5.50
2022-08-31T21:09:45.679Z,5.43
2022-08-31T21:12:18.060Z,7.72
2022-08-31T21:14:47.295Z,5.97
2022-08-31T21:17:17.024Z,5.70
2022-08-31T21:19:46.082Z,4.80
2022-08-31T21:22:18.103Z,8.73
2022-08-31T21:24:47.437Z,7.00
2022-08-31T21:27:18.204Z,7.50
2022-08-31T21:29:49.812Z,2.65
2022-08-31T21:32:19.426Z,4.60
2022-08-31T21:34:48.508Z,10.10
2022-08-31T21:37:16.585Z,5.50
2022-08-31T21:39:44.432Z,6.15
2022-08-31T21:42:12.216Z,8.15
2022-08-31T21:44:40.206Z,5.85
2022-08-31T21:47:14.579Z,11.75
2022-08-31T21:49:44.736Z,8.15
2022-08-31T21:52:13.491Z,10.90
2022-08-31T21:54:44.459Z,7.15
2022-08-31T21:57:14.084Z,15.57
2022-08-31T21:59:42.453Z,7.45
2022-08-31T22:02:13.824Z,8.65
2022-08-31T22:04:45.030Z,9.30
2022-08-31T22:07:14.414Z,7.35
2022-08-31T22:09:43.650Z,7.10
2022-08-31T22:12:14.808Z,8.40
2022-08-31T22:14:44.167Z,10.35
2022-08-31T22:17:12.884Z,4.68
2022-08-31T22:19:43.568Z,7.22
2022-08-31T22:22:14.049Z,5.93
2022-08-31T22:24:42.762Z,7.90
2022-08-31T22:27:13.216Z,7.57
2022-08-31T22:29:42.047Z,10.05
2022-08-31T22:32:15.078Z,9.48
2022-08-31T22:34:45.981Z,7.18
2022-08-31T22:37:14.153Z,8.57
2022-08-31T22:39:43.290Z,5.45
2022-08-31T22:42:11.812Z,6.50
2022-08-31T22:44:40.421Z,6.53
2022-08-31T22:47:08.275Z,5.50
2022-08-31T22:49:36.045Z,7.18
2022-08-31T22:52:07.200Z,6.68
2022-08-31T22:54:35.527Z,6.25
2022-08-31T22:57:03.310Z,8.13
2022-08-31T22:59:31.165Z,6.25
2022-08-31T23:02:04.694Z,9.80
2022-08-31T23:04:35.210Z,11.07
2022-08-31T23:07:05.023Z,8.48
2022-08-31T23:09:34.412Z,7.70
2022-08-31T23:12:05.386Z,5.78
2022-08-31T23:14:33.910Z,11.23
2022-08-31T23:17:08.090Z,8.60
2022-08-31T23:19:40.275Z,10.32
2022-08-31T23:22:12.265Z,7.57
2022-08-31T23:24:48.088Z,15.13
2022-08-31T23:27:19.278Z,8.25
2022-08-31T23:29:52.538Z,9.90
2022-08-31T23:32:26.142Z,9.10
2022-08-31T23:34:56.255Z,8.77
2022-08-31T23:37:27.569Z,8.25
2022-08-31T23:39:57.675Z,7.68
2022-08-31T23:42:29.298Z,11.98
2022-08-31T23:44:57.496Z,5.95
2022-08-31T23:47:28.893Z,8.13
2022-08-31T23:49:59.238Z,9.80
2022-08-31T23:52:31.178Z,9.20
2022-08-31T23:55:00.318Z,12.40
2022-08-31T23:57:32.773Z,10.02
